sensor_id;sensor_type;location;lat;lon;timestamp;temperature;humidity
18268;DHT22;9260;49.998;19.880;2022-07-11T00:08:17;11.60;99.90
18268;DHT22;9260;49.998;19.880;2022-07-11T00:18:23;11.70;99.90
18268;DHT22;9260;49.998;19.880;2022-07-11T00:28:28;11.60;99.90
18268;DHT22;9260;49.998;19.880;2022-07-11T00:38:33;11.60;99.90
18268;DHT22;9260;49.998;19.880;2022-07-11T00:48:37;11.60;99.90
18268;DHT22;9260;49.998;19.880;2022-07-11T00:58:42;11.60;99.90
18268;DHT22;9260;49.998;19.880;2022-07-11T01:08:46;11.60;99.90
18268;DHT22;9260;49.998;19.880;2022-07-11T01:18:53;11.60;99.90
18268;DHT22;9260;49.998;19.880;2022-07-11T01:29:06;11.60;99.90
18268;DHT22;9260;49.998;19.880;2022-07-11T01:39:11;11.70;99.90
18268;DHT22;9260;49.998;19.880;2022-07-11T01:49:16;11.60;99.90
18268;DHT22;9260;49.998;19.880;2022-07-11T01:59:20;11.60;99.90
18268;DHT22;9260;49.998;19.880;2022-07-11T02:09:25;11.60;99.90
18268;DHT22;9260;49.998;19.880;2022-07-11T02:19:29;11.60;99.90
18268;DHT22;9260;49.998;19.880;2022-07-11T02:29:34;11.60;99.90
18268;DHT22;9260;49.998;19.880;2022-07-11T02:39:38;11.50;99.90
18268;DHT22;9260;49.998;19.880;2022-07-11T02:49:43;11.60;99.90
18268;DHT22;9260;49.998;19.880;2022-07-11T02:59:50;11.60;99.90
18268;DHT22;9260;49.998;19.880;2022-07-11T03:09:55;11.60;99.90
18268;DHT22;9260;49.998;19.880;2022-07-11T03:19:59;11.70;99.90
18268;DHT22;9260;49.998;19.880;2022-07-11T03:30:06;11.80;99.90
18268;DHT22;9260;49.998;19.880;2022-07-11T03:40:10;11.80;99.90
18268;DHT22;9260;49.998;19.880;2022-07-11T03:50:16;11.80;99.90
18268;DHT22;9260;49.998;19.880;2022-07-11T04:00:20;11.80;99.90
18268;DHT22;9260;49.998;19.880;2022-07-11T04:10:25;11.70;99.90
18268;DHT22;9260;49.998;19.880;2022-07-11T04:20:29;11.90;99.90
18268;DHT22;9260;49.998;19.880;2022-07-11T04:30:35;12.00;99.90
18268;DHT22;9260;49.998;19.880;2022-07-11T04:40:38;12.30;99.90
18268;DHT22;9260;49.998;19.880;2022-07-11T04:50:44;12.60;99.90
18268;DHT22;9260;49.998;19.880;2022-07-11T05:00:48;12.80;99.90
18268;DHT22;9260;49.998;19.880;2022-07-11T05:10:53;13.00;99.90
18268;DHT22;9260;49.998;19.880;2022-07-11T05:20:57;13.10;1.00
18268;DHT22;9260;49.998;19.880;2022-07-11T05:31:02;13.10;99.90
18268;DHT22;9260;49.998;19.880;2022-07-11T05:41:08;13.60;99.90
18268;DHT22;9260;49.998;19.880;2022-07-11T05:51:14;14.20;99.90
18268;DHT22;9260;49.998;19.880;2022-07-11T06:01:20;14.50;99.90
18268;DHT22;9260;49.998;19.880;2022-07-11T06:11:26;15.80;1.00
18268;DHT22;9260;49.998;19.880;2022-07-11T06:21:30;15.80;99.90
18268;DHT22;9260;49.998;19.880;2022-07-11T06:31:35;16.70;99.90
18268;DHT22;9260;49.998;19.880;2022-07-11T06:41:39;16.90;99.90
18268;DHT22;9260;49.998;19.880;2022-07-11T06:51:46;16.70;99.90
18268;DHT22;9260;49.998;19.880;2022-07-11T07:01:49;16.90;99.90
18268;DHT22;9260;49.998;19.880;2022-07-11T07:11:54;17.40;99.90
18268;DHT22;9260;49.998;19.880;2022-07-11T07:21:58;18.10;99.90
18268;DHT22;9260;49.998;19.880;2022-07-11T07:32:04;19.10;99.90
18268;DHT22;9260;49.998;19.880;2022-07-11T07:42:09;18.50;99.90
18268;DHT22;9260;49.998;19.880;2022-07-11T07:52:14;17.70;99.90
18268;DHT22;9260;49.998;19.880;2022-07-11T08:02:19;18.80;99.90
18268;DHT22;9260;49.998;19.880;2022-07-11T08:12:24;19.70;99.90
18268;DHT22;9260;49.998;19.880;2022-07-11T08:22:29;20.90;99.90
18268;DHT22;9260;49.998;19.880;2022-07-11T08:32:37;22.20;99.90
18268;DHT22;9260;49.998;19.880;2022-07-11T08:42:44;20.70;99.90
18268;DHT22;9260;49.998;19.880;2022-07-11T08:52:51;17.90;99.90
18268;DHT22;9260;49.998;19.880;2022-07-11T09:02:55;20.60;99.90
18268;DHT22;9260;49.998;19.880;2022-07-11T09:13:02;27.30;99.90
18268;DHT22;9260;49.998;19.880;2022-07-11T09:23:19;29.20;99.90
18268;DHT22;9260;49.998;19.880;2022-07-11T09:33:57;26.20;99.90
18268;DHT22;9260;49.998;19.880;2022-07-11T09:44:11;26.30;99.90
18268;DHT22;9260;49.998;19.880;2022-07-11T09:54:17;27.90;99.90
18268;DHT22;9260;49.998;19.880;2022-07-11T10:04:21;34.40;1.00
18268;DHT22;9260;49.998;19.880;2022-07-11T10:14:27;31.10;1.00
18268;DHT22;9260;49.998;19.880;2022-07-11T10:24:36;35.60;1.00
18268;DHT22;9260;49.998;19.880;2022-07-11T10:35:08;32.10;1.00
18268;DHT22;9260;49.998;19.880;2022-07-11T10:45:12;31.10;1.00
18268;DHT22;9260;49.998;19.880;2022-07-11T10:55:28;28.80;1.00
18268;DHT22;9260;49.998;19.880;2022-07-11T11:05:46;23.30;99.90
18268;DHT22;9260;49.998;19.880;2022-07-11T11:15:53;18.30;99.90
18268;DHT22;9260;49.998;19.880;2022-07-11T11:26:04;16.50;99.90
18268;DHT22;9260;49.998;19.880;2022-07-11T11:36:10;15.60;99.90
18268;DHT22;9260;49.998;19.880;2022-07-11T11:46:13;14.20;99.90
18268;DHT22;9260;49.998;19.880;2022-07-11T11:56:22;13.60;99.90
18268;DHT22;9260;49.998;19.880;2022-07-11T12:06:32;13.50;99.90
18268;DHT22;9260;49.998;19.880;2022-07-11T12:16:42;14.50;99.90
18268;DHT22;9260;49.998;19.880;2022-07-11T12:26:55;16.50;99.90
18268;DHT22;9260;49.998;19.880;2022-07-11T12:37:07;20.10;99.90
18268;DHT22;9260;49.998;19.880;2022-07-11T12:47:12;20.30;99.90
18268;DHT22;9260;49.998;19.880;2022-07-11T12:57:21;20.10;1.00
18268;DHT22;9260;49.998;19.880;2022-07-11T13:07:27;20.80;99.90
18268;DHT22;9260;49.998;19.880;2022-07-11T13:17:52;20.80;99.90
18268;DHT22;9260;49.998;19.880;2022-07-11T13:27:58;20.80;99.90
18268;DHT22;9260;49.998;19.880;2022-07-11T13:38:03;19.20;99.90
18268;DHT22;9260;49.998;19.880;2022-07-11T13:48:07;19.60;99.90
18268;DHT22;9260;49.998;19.880;2022-07-11T13:58:12;20.20;99.90
18268;DHT22;9260;49.998;19.880;2022-07-11T14:08:32;20.20;99.90
18268;DHT22;9260;49.998;19.880;2022-07-11T14:18:37;18.90;99.90
18268;DHT22;9260;49.998;19.880;2022-07-11T14:28:41;18.50;99.90
18268;DHT22;9260;49.998;19.880;2022-07-11T14:38:47;18.50;99.90
18268;DHT22;9260;49.998;19.880;2022-07-11T14:48:51;18.00;99.90
18268;DHT22;9260;49.998;19.880;2022-07-11T14:58:56;17.40;99.90
18268;DHT22;9260;49.998;19.880;2022-07-11T15:09:00;17.30;99.90
18268;DHT22;9260;49.998;19.880;2022-07-11T15:19:23;16.80;99.90
18268;DHT22;9260;49.998;19.880;2022-07-11T15:29:27;16.50;1.00
18268;DHT22;9260;49.998;19.880;2022-07-11T15:39:32;17.10;9.80
18268;DHT22;9260;49.998;19.880;2022-07-11T15:49:36;17.10;99.90
18268;DHT22;9260;49.998;19.880;2022-07-11T15:59:41;16.50;1.00
18268;DHT22;9260;49.998;19.880;2022-07-11T16:09:45;17.40;99.90
18268;DHT22;9260;49.998;19.880;2022-07-11T16:19:50;16.80;1.00
18268;DHT22;9260;49.998;19.880;2022-07-11T16:29:54;16.60;1.00
18268;DHT22;9260;49.998;19.880;2022-07-11T16:39:59;16.70;1.00
18268;DHT22;9260;49.998;19.880;2022-07-11T16:50:20;16.10;99.90
18268;DHT22;9260;49.998;19.880;2022-07-11T17:00:41;15.90;99.90
18268;DHT22;9260;49.998;19.880;2022-07-11T17:10:45;15.70;1.00
18268;DHT22;9260;49.998;19.880;2022-07-11T17:20:51;15.10;1.00
18268;DHT22;9260;49.998;19.880;2022-07-11T17:30:55;14.60;1.00
18268;DHT22;9260;49.998;19.880;2022-07-11T17:41:00;14.50;1.00
18268;DHT22;9260;49.998;19.880;2022-07-11T17:51:04;14.00;1.00
18268;DHT22;9260;49.998;19.880;2022-07-11T18:01:28;13.80;99.90
18268;DHT22;9260;49.998;19.880;2022-07-11T18:11:34;13.30;1.00
18268;DHT22;9260;49.998;19.880;2022-07-11T18:21:40;12.60;1.00
18268;DHT22;9260;49.998;19.880;2022-07-11T18:31:44;11.80;1.00
18268;DHT22;9260;49.998;19.880;2022-07-11T18:41:51;11.70;99.90
18268;DHT22;9260;49.998;19.880;2022-07-11T18:51:55;11.40;93.30
18268;DHT22;9260;49.998;19.880;2022-07-11T19:02:03;11.30;1.00
18268;DHT22;9260;49.998;19.880;2022-07-11T19:12:07;11.30;99.90
18268;DHT22;9260;49.998;19.880;2022-07-11T19:22:12;11.30;99.90
18268;DHT22;9260;49.998;19.880;2022-07-11T19:32:17;11.20;99.90
18268;DHT22;9260;49.998;19.880;2022-07-11T19:42:23;11.20;99.90
18268;DHT22;9260;49.998;19.880;2022-07-11T19:52:27;11.10;99.90
18268;DHT22;9260;49.998;19.880;2022-07-11T20:02:32;10.90;99.90
18268;DHT22;9260;49.998;19.880;2022-07-11T20:12:36;10.60;99.90
18268;DHT22;9260;49.998;19.880;2022-07-11T20:22:42;10.40;99.90
18268;DHT22;9260;49.998;19.880;2022-07-11T20:32:46;10.10;99.90
18268;DHT22;9260;49.998;19.880;2022-07-11T20:42:51;9.90;99.90
18268;DHT22;9260;49.998;19.880;2022-07-11T20:52:55;9.90;99.90
18268;DHT22;9260;49.998;19.880;2022-07-11T21:03:01;9.90;99.90
18268;DHT22;9260;49.998;19.880;2022-07-11T21:13:04;9.90;72.30
18268;DHT22;9260;49.998;19.880;2022-07-11T21:23:10;9.60;1.00
18268;DHT22;9260;49.998;19.880;2022-07-11T21:33:14;9.50;1.00
18268;DHT22;9260;49.998;19.880;2022-07-11T21:43:20;9.50;99.90
18268;DHT22;9260;49.998;19.880;2022-07-11T21:53:23;9.50;98.80
18268;DHT22;9260;49.998;19.880;2022-07-11T22:03:29;9.30;99.90
18268;DHT22;9260;49.998;19.880;2022-07-11T22:13:33;9.20;1.00
18268;DHT22;9260;49.998;19.880;2022-07-11T22:23:38;9.30;1.00
18268;DHT22;9260;49.998;19.880;2022-07-11T22:33:42;9.30;1.00
18268;DHT22;9260;49.998;19.880;2022-07-11T22:43:47;9.30;92.50
18268;DHT22;9260;49.998;19.880;2022-07-11T22:53:51;9.60;1.00
18268;DHT22;9260;49.998;19.880;2022-07-11T23:03:56;9.70;1.00
18268;DHT22;9260;49.998;19.880;2022-07-11T23:14:00;9.80;1.00
18268;DHT22;9260;49.998;19.880;2022-07-11T23:24:05;9.90;1.00
18268;DHT22;9260;49.998;19.880;2022-07-11T23:34:09;9.90;24.50
18268;DHT22;9260;49.998;19.880;2022-07-11T23:44:15;9.90;1.00
18268;DHT22;9260;49.998;19.880;2022-07-11T23:54:19;10.00;99.90
